This is the latest recevied weather packets stored in our database for station/object N9DMT-13. If no packets are shown the sender has not sent any weather packets the latest 1 day(s).
| Time | Temp. | Humidity | Pressure | Rain* | Wind** | Luminosity | Snow |
|---|---|---|---|---|---|---|---|
| 1778081488 | 8.89° C | 49% | 983.3 hPa | 0 mm | - | - | - |
| 1778079683 | 8.89° C | 45% | 983.3 hPa | 0 mm | - | - | - |
| 1778077878 | 8.89° C | 47% | 983.1 hPa | 0 mm | - | - | - |
| 1778077277 | 8.89° C | 51% | 983 hPa | 0 mm | - | - | - |
| 1778076976 | 8.33° C | 51% | 983.1 hPa | 0 mm | - | - | - |
| 1778076675 | 7.78° C | 50% | 983 hPa | 0 mm | - | - | - |
| 1778076374 | 7.78° C | 49% | 982.8 hPa | 0 mm | - | - | - |
| 1778075472 | 7.22° C | 50% | 982.8 hPa | 0 mm | - | - | - |
| 1778075171 | 6.67° C | 51% | 983 hPa | 0 mm | - | - | - |
| 1778074870 | 6.67° C | 52% | 982.9 hPa | 0 mm | - | - | - |
| 1778073968 | 7.22° C | 51% | 982.7 hPa | 0 mm | - | - | - |
| 1778072163 | 5.56° C | 57% | 982.3 hPa | 0 mm | - | - | - |
| 1778071862 | 5° C | 59% | 982.3 hPa | 0 mm | - | - | - |
| 1778071561 | 5° C | 59% | 982.4 hPa | 0 mm | - | - | - |
| 1778069455 | 2.22° C | 79% | 982.2 hPa | 0 mm | - | - | - |
| 1778069154 | 1.67° C | 83% | 982.1 hPa | 0 mm | - | - | - |
| 1778068853 | 1.11° C | 87% | 982.1 hPa | 0 mm | - | - | - |
| 1778067951 | -1.11° C | 92% | 981.8 hPa | 0 mm | - | - | - |
| 1778067650 | -1.11° C | 92% | 981.8 hPa | 0 mm | - | - | - |
| 1778065844 | -1.67° C | 93% | 981.3 hPa | 0 mm | - | - | - |
| 1778064942 | -1.67° C | 93% | 981.3 hPa | 0 mm | - | - | - |
| 1778064641 | -1.67° C | 93% | 981.3 hPa | 0 mm | - | - | - |
| 1778064340 | -1.67° C | 93% | 981.2 hPa | 0 mm | - | - | - |
| 1778063739 | -1.67° C | 93% | 981.2 hPa | 0 mm | - | - | - |
| 1778063438 | -1.67° C | 93% | 981.3 hPa | 0 mm | - | - | - |
* Rain latest hour (hover to see other rain measurements)
** Current wind speed in m/s (hover to see current wind gust speed)